createdAt,value
2022-10-09T00:00:27.767Z,13.87
2022-10-09T00:04:43.372Z,15.30
2022-10-09T00:08:57.587Z,16.55
2022-10-09T00:13:12.060Z,15.40
2022-10-09T00:17:25.921Z,15.43
2022-10-09T00:21:40.959Z,13.75
2022-10-09T00:25:56.122Z,15.63
2022-10-09T00:30:10.956Z,15.33
2022-10-09T00:34:24.571Z,13.63
2022-10-09T00:38:40.396Z,15.75
2022-10-09T00:42:57.375Z,13.87
2022-10-09T00:47:16.201Z,14.95
2022-10-09T00:51:32.232Z,15.10
2022-10-09T00:55:47.620Z,13.93
2022-10-09T01:00:05.168Z,18.27
2022-10-09T01:04:18.834Z,15.60
2022-10-09T01:08:38.972Z,13.82
2022-10-09T01:13:03.008Z,14.43
2022-10-09T01:17:32.365Z,16.55
2022-10-09T01:21:57.700Z,13.45
2022-10-09T01:26:22.202Z,15.70
2022-10-09T01:30:38.655Z,15.60
2022-10-09T01:34:54.440Z,18.02
2022-10-09T01:39:12.340Z,16.60
2022-10-09T01:43:26.122Z,15.07
2022-10-09T01:47:41.456Z,17.63
2022-10-09T01:52:00.292Z,15.77
2022-10-09T01:56:19.070Z,18.10
2022-10-09T02:00:37.603Z,16.45
2022-10-09T02:04:53.305Z,15.05
2022-10-09T02:09:12.466Z,15.67
2022-10-09T02:13:26.301Z,13.70
2022-10-09T02:17:46.636Z,14.88
2022-10-09T02:22:09.219Z,16.63
2022-10-09T02:26:23.335Z,14.93
2022-10-09T02:30:45.221Z,18.00
2022-10-09T02:34:58.889Z,18.67
2022-10-09T02:39:14.019Z,15.77
2022-10-09T02:43:27.790Z,16.90
2022-10-09T02:47:41.530Z,15.73
2022-10-09T02:51:55.215Z,16.47
2022-10-09T02:56:10.287Z,16.88
2022-10-09T03:00:23.991Z,17.90
2022-10-09T03:04:37.710Z,18.00
2022-10-09T03:08:53.309Z,21.90
2022-10-09T03:13:08.851Z,17.52
2022-10-09T03:17:22.550Z,19.63
2022-10-09T03:21:36.362Z,21.00
2022-10-09T03:25:57.120Z,17.40
2022-10-09T03:30:13.203Z,19.30
2022-10-09T03:34:26.890Z,17.10
2022-10-09T03:38:40.890Z,19.48
2022-10-09T03:42:54.540Z,18.50
2022-10-09T03:47:09.839Z,19.63
2022-10-09T03:51:23.574Z,19.35
2022-10-09T03:55:37.420Z,17.55
2022-10-09T03:59:51.197Z,18.15
2022-10-09T04:04:06.172Z,17.40
2022-10-09T04:08:19.853Z,19.73
2022-10-09T04:12:33.514Z,21.00
2022-10-09T04:16:47.269Z,15.07
2022-10-09T04:21:02.391Z,16.23
2022-10-09T04:25:16.204Z,15.25
2022-10-09T04:29:29.903Z,17.40
2022-10-09T04:33:43.507Z,19.73
2022-10-09T04:37:58.492Z,15.27
2022-10-09T04:42:12.093Z,19.13
2022-10-09T04:46:25.879Z,18.20
2022-10-09T04:50:40.385Z,23.08
2022-10-09T04:54:55.880Z,20.92
2022-10-09T04:59:09.569Z,19.87
2022-10-09T05:03:23.237Z,25.67
2022-10-09T05:07:36.836Z,20.55
2022-10-09T05:11:51.892Z,19.80
2022-10-09T05:16:08.080Z,19.83
2022-10-09T05:20:21.810Z,20.38
2022-10-09T05:24:35.502Z,18.38
2022-10-09T05:28:51.216Z,18.80
2022-10-09T05:33:04.929Z,21.00
2022-10-09T05:37:18.557Z,16.52
2022-10-09T05:41:32.157Z,18.77
2022-10-09T05:45:48.442Z,17.17
2022-10-09T05:50:02.241Z,17.55
2022-10-09T05:54:17.979Z,15.67
2022-10-09T05:58:31.666Z,25.52
2022-10-09T06:02:46.974Z,16.73
2022-10-09T06:07:00.915Z,17.20
2022-10-09T06:11:16.363Z,17.30
2022-10-09T06:15:30.673Z,19.00
2022-10-09T06:19:45.804Z,17.50
2022-10-09T06:24:02.050Z,20.07
2022-10-09T06:28:16.140Z,19.83
2022-10-09T06:32:30.119Z,19.48
2022-10-09T06:36:45.126Z,19.37
2022-10-09T06:41:03.776Z,18.17
2022-10-09T06:45:18.763Z,16.30
2022-10-09T06:49:32.405Z,14.63
2022-10-09T06:53:49.420Z,14.43
2022-10-09T06:58:03.175Z,12.02
2022-10-09T07:02:17.378Z,11.68
2022-10-09T07:06:33.075Z,13.83
2022-10-09T07:10:48.277Z,11.90
2022-10-09T07:15:02.099Z,11.88
2022-10-09T07:19:17.626Z,10.87
2022-10-09T07:23:32.411Z,11.25
2022-10-09T07:27:47.558Z,10.32
2022-10-09T07:32:03.949Z,10.88
2022-10-09T07:36:19.840Z,9.30
2022-10-09T07:40:35.231Z,9.18
2022-10-09T07:44:53.366Z,9.98
2022-10-09T07:49:07.386Z,10.17
2022-10-09T07:53:21.224Z,8.75
2022-10-09T07:57:35.284Z,10.43
2022-10-09T08:01:50.420Z,11.03
2022-10-09T08:06:05.131Z,11.15
2022-10-09T08:10:18.942Z,9.45
2022-10-09T08:14:32.734Z,10.13
2022-10-09T08:18:48.268Z,11.83
2022-10-09T08:23:02.080Z,11.88
2022-10-09T08:27:15.787Z,10.32
2022-10-09T08:31:30.291Z,9.67
2022-10-09T08:35:45.373Z,9.55
2022-10-09T08:39:59.032Z,10.18
2022-10-09T08:44:16.366Z,8.57
2022-10-09T08:48:32.152Z,10.70
2022-10-09T08:52:56.988Z,10.93
2022-10-09T08:57:14.035Z,8.98
2022-10-09T09:01:36.621Z,10.57
2022-10-09T09:05:54.538Z,8.32
2022-10-09T09:10:18.142Z,10.60
2022-10-09T09:14:43.520Z,8.50
2022-10-09T09:19:16.988Z,11.27
2022-10-09T09:23:35.276Z,10.98
2022-10-09T09:27:52.506Z,11.37
2022-10-09T09:32:10.157Z,11.15
2022-10-09T09:36:26.389Z,9.50
2022-10-09T09:40:44.370Z,11.02
2022-10-09T09:45:06.109Z,10.90
2022-10-09T09:49:21.300Z,12.63
2022-10-09T09:53:37.780Z,9.43
2022-10-09T09:57:51.846Z,9.70
2022-10-09T10:02:14.544Z,6.88
2022-10-09T10:06:31.892Z,8.55
2022-10-09T10:10:48.951Z,9.10
2022-10-09T10:15:02.917Z,7.60
2022-10-09T10:19:26.111Z,8.88
2022-10-09T10:23:43.029Z,8.32
2022-10-09T10:28:02.936Z,7.73
2022-10-09T10:32:22.167Z,8.07
2022-10-09T10:36:37.748Z,7.38
2022-10-09T10:40:57.949Z,8.80
2022-10-09T10:45:19.045Z,7.70
2022-10-09T10:49:34.065Z,8.68
2022-10-09T10:54:05.162Z,8.57
2022-10-09T10:58:26.875Z,5.63
2022-10-09T11:03:16.306Z,9.85
2022-10-09T11:07:37.838Z,9.23
2022-10-09T11:12:00.587Z,7.60
2022-10-09T11:16:28.239Z,9.75
2022-10-09T11:21:17.866Z,6.25
2022-10-09T11:25:36.654Z,5.07
2022-10-09T11:29:55.412Z,7.30
2022-10-09T11:34:15.761Z,7.72
2022-10-09T11:38:36.651Z,8.13
2022-10-09T11:42:59.832Z,8.70
2022-10-09T11:47:22.688Z,6.00
2022-10-09T11:51:45.927Z,6.28
2022-10-09T11:56:04.633Z,7.37
2022-10-09T12:00:29.269Z,9.05
2022-10-09T12:04:54.440Z,5.53
2022-10-09T12:09:09.832Z,8.73
2022-10-09T12:13:41.710Z,6.85
2022-10-09T12:17:55.465Z,6.65
2022-10-09T12:22:16.778Z,11.07
2022-10-09T12:26:31.308Z,6.57
2022-10-09T12:30:49.803Z,6.35
2022-10-09T12:35:22.576Z,6.30
2022-10-09T12:39:37.762Z,7.53
2022-10-09T12:43:53.730Z,10.55
2022-10-09T12:48:12.007Z,5.30
2022-10-09T12:52:25.717Z,7.33
2022-10-09T12:56:41.039Z,4.65
2022-10-09T13:00:58.340Z,8.15
2022-10-09T13:05:12.575Z,4.47
2022-10-09T13:09:30.569Z,4.97
2022-10-09T13:13:50.844Z,3.42
2022-10-09T13:18:20.782Z,7.35
2022-10-09T13:22:36.019Z,4.37
2022-10-09T13:26:49.831Z,6.20
2022-10-09T13:31:09.036Z,6.75
2022-10-09T13:35:23.321Z,5.53
2022-10-09T13:39:36.923Z,8.60
2022-10-09T13:43:52.416Z,7.85
2022-10-09T13:48:07.614Z,7.20
2022-10-09T13:52:21.637Z,6.22
2022-10-09T13:56:35.684Z,5.20
2022-10-09T14:00:53.134Z,3.72
2022-10-09T14:05:09.242Z,6.93
2022-10-09T14:09:23.774Z,5.20
2022-10-09T14:13:37.389Z,6.32
2022-10-09T14:17:51.374Z,3.33
2022-10-09T14:22:07.443Z,7.10
2022-10-09T14:26:21.194Z,5.22
2022-10-09T14:30:35.142Z,7.07
2022-10-09T14:34:48.945Z,7.97
2022-10-09T14:39:05.519Z,6.15
2022-10-09T14:43:20.113Z,4.85
2022-10-09T14:47:33.937Z,6.07
2022-10-09T14:51:47.665Z,4.72
2022-10-09T14:56:03.949Z,7.72
2022-10-09T15:00:18.121Z,5.80
2022-10-09T15:04:32.259Z,7.40
2022-10-09T15:08:46.415Z,5.40
2022-10-09T15:13:01.518Z,4.53
2022-10-09T15:17:15.586Z,6.80
2022-10-09T15:21:30.898Z,5.78
2022-10-09T15:25:49.729Z,6.68
2022-10-09T15:30:06.313Z,8.60
2022-10-09T15:34:20.987Z,4.57
2022-10-09T15:38:34.673Z,4.40
2022-10-09T15:42:48.620Z,6.80
2022-10-09T15:47:03.935Z,7.22
2022-10-09T15:51:18.499Z,6.57
2022-10-09T15:55:32.161Z,5.83
2022-10-09T15:59:45.754Z,9.30
2022-10-09T16:04:00.943Z,9.80
2022-10-09T16:08:14.984Z,11.05
2022-10-09T16:12:28.801Z,5.83
2022-10-09T16:16:42.761Z,5.53
2022-10-09T16:20:58.022Z,6.55
2022-10-09T16:25:11.825Z,6.90
2022-10-09T16:29:25.525Z,7.28
2022-10-09T16:33:39.184Z,7.18
2022-10-09T16:37:54.232Z,7.30
2022-10-09T16:42:07.916Z,5.70
2022-10-09T16:46:23.463Z,6.75
2022-10-09T16:50:41.271Z,6.63
2022-10-09T16:54:59.622Z,8.63
2022-10-09T16:59:14.574Z,8.55
2022-10-09T17:03:28.782Z,9.90
2022-10-09T17:07:42.534Z,6.10
2022-10-09T17:11:58.185Z,8.02
2022-10-09T17:16:18.000Z,6.65
2022-10-09T17:20:32.198Z,6.90
2022-10-09T17:24:45.944Z,6.20
2022-10-09T17:29:01.815Z,7.53
2022-10-09T17:33:19.610Z,9.52
2022-10-09T17:37:33.747Z,5.37
2022-10-09T17:41:49.370Z,5.47
2022-10-09T17:46:04.994Z,7.90
2022-10-09T17:50:18.982Z,8.83
2022-10-09T17:54:32.654Z,7.20
2022-10-09T17:58:47.518Z,6.78
2022-10-09T18:03:02.469Z,7.27
2022-10-09T18:07:19.438Z,7.93
2022-10-09T18:11:33.327Z,5.45
2022-10-09T18:15:47.081Z,8.50
2022-10-09T18:20:02.082Z,15.20
2022-10-09T18:24:16.803Z,13.63
2022-10-09T18:28:30.545Z,7.72
2022-10-09T18:32:44.207Z,6.93
2022-10-09T18:36:59.343Z,7.18
2022-10-09T18:41:13.256Z,6.75
2022-10-09T18:45:27.518Z,5.27
2022-10-09T18:49:44.688Z,8.55
2022-10-09T18:54:03.956Z,7.55
2022-10-09T18:58:17.834Z,7.57
2022-10-09T19:02:31.889Z,10.90
2022-10-09T19:06:46.093Z,8.65
2022-10-09T19:11:01.367Z,8.02
2022-10-09T19:15:15.171Z,7.43
2022-10-09T19:19:29.771Z,9.48
2022-10-09T19:23:43.960Z,8.13
2022-10-09T19:27:59.171Z,12.97
2022-10-09T19:32:13.355Z,12.90
2022-10-09T19:36:28.243Z,11.52
2022-10-09T19:40:42.002Z,9.07
2022-10-09T19:44:57.006Z,8.93
2022-10-09T19:49:10.840Z,8.57
2022-10-09T19:53:27.251Z,9.13
2022-10-09T19:57:40.981Z,10.50
2022-10-09T20:01:57.705Z,10.18
2022-10-09T20:06:12.507Z,12.63
2022-10-09T20:10:27.715Z,10.40
2022-10-09T20:14:41.541Z,10.65
2022-10-09T20:18:57.321Z,8.45
2022-10-09T20:23:11.009Z,7.50
2022-10-09T20:27:24.904Z,8.97
2022-10-09T20:31:38.689Z,8.80
2022-10-09T20:35:53.939Z,10.75
2022-10-09T20:40:08.209Z,10.10
2022-10-09T20:44:21.887Z,11.60
2022-10-09T20:48:35.687Z,10.18
2022-10-09T20:52:50.838Z,9.23
2022-10-09T20:57:04.821Z,7.75
2022-10-09T21:01:18.662Z,8.50
2022-10-09T21:05:32.659Z,9.95
2022-10-09T21:09:48.282Z,8.20
2022-10-09T21:14:02.403Z,11.57
2022-10-09T21:18:18.138Z,8.63
2022-10-09T21:22:32.731Z,8.90
2022-10-09T21:26:47.766Z,7.95
2022-10-09T21:31:01.403Z,10.43
2022-10-09T21:35:15.029Z,7.57
2022-10-09T21:39:28.812Z,7.43
2022-10-09T21:43:44.018Z,9.85
2022-10-09T21:47:57.743Z,8.25
2022-10-09T21:52:11.980Z,8.00
2022-10-09T21:56:25.673Z,7.05
2022-10-09T22:00:40.690Z,9.95
2022-10-09T22:04:57.208Z,8.77
2022-10-09T22:09:10.983Z,10.70
2022-10-09T22:13:24.723Z,9.63
2022-10-09T22:17:39.847Z,7.90
2022-10-09T22:21:53.502Z,10.90
2022-10-09T22:26:09.760Z,9.40
2022-10-09T22:30:23.363Z,9.63
2022-10-09T22:34:38.558Z,8.37
2022-10-09T22:38:54.756Z,11.43
2022-10-09T22:43:09.345Z,10.65
2022-10-09T22:47:23.270Z,8.67
2022-10-09T22:51:38.232Z,10.48
2022-10-09T22:55:51.836Z,11.15
2022-10-09T23:00:06.874Z,11.77
2022-10-09T23:04:21.999Z,9.30
2022-10-09T23:08:38.634Z,10.52
2022-10-09T23:12:52.596Z,7.88
2022-10-09T23:17:06.400Z,9.83
2022-10-09T23:21:22.360Z,10.73
2022-10-09T23:25:41.202Z,8.80
2022-10-09T23:29:54.901Z,8.10
2022-10-09T23:34:08.843Z,9.95
2022-10-09T23:38:22.573Z,10.25
2022-10-09T23:42:37.771Z,8.57
2022-10-09T23:46:52.595Z,10.25
2022-10-09T23:51:06.830Z,8.18
2022-10-09T23:55:20.619Z,9.52
2022-10-09T23:59:35.753Z,9.93
